createdAt,value
2022-12-13T00:01:32.092Z,16.08
2022-12-13T00:04:01.809Z,16.30
2022-12-13T00:06:30.710Z,17.17
2022-12-13T00:08:58.069Z,17.80
2022-12-13T00:11:24.656Z,16.88
2022-12-13T00:13:51.327Z,16.48
2022-12-13T00:16:20.368Z,18.60
2022-12-13T00:18:48.567Z,19.33
2022-12-13T00:21:17.864Z,17.88
2022-12-13T00:23:45.270Z,20.35
2022-12-13T00:26:14.584Z,19.10
2022-12-13T00:28:41.891Z,18.02
2022-12-13T00:31:43.537Z,20.38
2022-12-13T00:33:55.107Z,22.17
2022-12-13T00:36:21.668Z,20.45
2022-12-13T00:39:00.135Z,20.55
2022-12-13T00:41:30.203Z,21.42
2022-12-13T00:43:58.173Z,18.80
2022-12-13T00:46:25.234Z,18.38
2022-12-13T00:48:54.389Z,19.98
2022-12-13T00:51:24.804Z,16.52
2022-12-13T00:53:51.470Z,20.10
2022-12-13T00:56:23.565Z,15.80
2022-12-13T00:58:52.265Z,14.30
2022-12-13T01:01:21.211Z,16.90
2022-12-13T01:03:48.018Z,15.13
2022-12-13T01:06:21.298Z,13.23
2022-12-13T01:08:48.859Z,16.17
2022-12-13T01:11:16.406Z,15.25
2022-12-13T01:13:42.944Z,15.88
2022-12-13T01:16:11.250Z,17.77
2022-12-13T01:18:38.622Z,14.35
2022-12-13T01:21:15.191Z,16.48
2022-12-13T01:23:42.507Z,14.93
2022-12-13T01:26:15.234Z,13.73
2022-12-13T01:28:42.492Z,15.15
2022-12-13T01:31:14.683Z,15.02
2022-12-13T01:33:42.253Z,15.80
2022-12-13T01:36:14.741Z,15.82
2022-12-13T01:38:41.391Z,12.48
2022-12-13T01:41:16.750Z,17.83
2022-12-13T01:43:47.021Z,16.83
2022-12-13T01:46:18.151Z,13.50
2022-12-13T01:48:48.418Z,15.80
2022-12-13T01:51:17.960Z,16.17
2022-12-13T01:53:47.640Z,16.30
2022-12-13T01:56:40.824Z,15.55
2022-12-13T01:59:09.193Z,16.20
2022-12-13T02:01:36.364Z,17.15
2022-12-13T02:04:03.272Z,21.35
2022-12-13T02:06:46.728Z,21.95
2022-12-13T02:09:14.023Z,14.55
2022-12-13T02:11:43.563Z,17.83
2022-12-13T02:14:10.471Z,18.35
2022-12-13T02:17:11.487Z,19.67
2022-12-13T02:20:13.299Z,17.48
2022-12-13T02:23:17.660Z,18.52
2022-12-13T02:26:12.284Z,20.60
2022-12-13T02:28:50.688Z,13.07
2022-12-13T02:31:32.030Z,15.07
2022-12-13T02:34:15.455Z,16.83
2022-12-13T02:36:56.291Z,14.32
2022-12-13T02:39:39.322Z,16.55
2022-12-13T02:42:22.361Z,12.98
2022-12-13T02:45:06.786Z,17.10
2022-12-13T02:47:35.133Z,15.93
2022-12-13T02:50:06.085Z,17.75
2022-12-13T02:52:33.483Z,16.48
2022-12-13T02:55:00.168Z,16.63
2022-12-13T02:57:48.560Z,17.58
2022-12-13T03:00:22.890Z,17.95
2022-12-13T03:03:01.716Z,16.70
2022-12-13T03:06:18.059Z,20.02
2022-12-13T03:08:54.976Z,18.85
2022-12-13T03:11:25.483Z,22.42
2022-12-13T03:14:02.281Z,18.23
2022-12-13T03:16:38.885Z,19.08
2022-12-13T03:19:08.531Z,21.00
2022-12-13T03:21:45.560Z,17.33
2022-12-13T03:24:14.148Z,15.55
2022-12-13T03:26:41.389Z,15.75
2022-12-13T03:29:08.167Z,16.73
2022-12-13T03:31:34.776Z,16.02
2022-12-13T03:34:01.343Z,17.90
2022-12-13T03:36:29.914Z,16.73
2022-12-13T03:38:56.669Z,14.18
2022-12-13T03:41:31.390Z,16.95
2022-12-13T03:44:00.100Z,16.65
2022-12-13T03:46:26.637Z,16.88
2022-12-13T03:48:53.224Z,17.98
2022-12-13T03:51:19.745Z,16.67
2022-12-13T03:53:46.323Z,13.77
2022-12-13T03:56:13.004Z,15.73
2022-12-13T03:58:42.211Z,20.17
2022-12-13T04:01:14.702Z,15.68
2022-12-13T04:03:43.116Z,12.57
2022-12-13T04:06:10.709Z,15.77
2022-12-13T04:08:39.120Z,17.83
2022-12-13T04:11:25.226Z,18.60
2022-12-13T04:13:56.801Z,18.60
2022-12-13T04:16:24.007Z,18.10
2022-12-13T04:18:53.850Z,20.30
2022-12-13T04:21:26.058Z,19.77
2022-12-13T04:23:52.896Z,17.55
2022-12-13T04:26:19.510Z,19.35
2022-12-13T04:28:50.874Z,15.82
2022-12-13T04:31:20.740Z,20.10
2022-12-13T04:33:47.338Z,17.25
2022-12-13T04:36:31.414Z,16.88
2022-12-13T04:39:02.260Z,16.55
2022-12-13T04:41:34.939Z,16.15
2022-12-13T04:44:02.193Z,16.00
2022-12-13T04:46:28.927Z,15.95
2022-12-13T04:48:55.512Z,13.43
2022-12-13T04:51:22.375Z,14.48
2022-12-13T04:53:49.367Z,15.38
2022-12-13T04:56:15.985Z,15.77
2022-12-13T04:58:42.603Z,21.10
2022-12-13T05:01:11.163Z,16.75
2022-12-13T05:03:38.937Z,17.98
2022-12-13T05:06:27.122Z,17.13
2022-12-13T05:08:54.545Z,17.13
2022-12-13T05:11:22.963Z,16.10
2022-12-13T05:13:50.151Z,18.10
2022-12-13T05:16:16.790Z,16.10
2022-12-13T05:18:43.375Z,17.70
2022-12-13T05:21:11.947Z,15.65
2022-12-13T05:23:40.109Z,22.45
2022-12-13T05:26:06.713Z,21.92
2022-12-13T05:28:33.563Z,22.52
2022-12-13T05:31:22.488Z,21.55
2022-12-13T05:33:51.230Z,19.27
2022-12-13T05:36:17.713Z,19.92
2022-12-13T05:38:44.960Z,20.15
2022-12-13T05:41:16.738Z,21.92
2022-12-13T05:43:43.919Z,19.05
2022-12-13T05:46:14.056Z,21.13
2022-12-13T05:48:41.049Z,21.88
2022-12-13T05:51:11.090Z,21.33
2022-12-13T05:53:42.166Z,21.90
2022-12-13T05:56:10.275Z,23.52
2022-12-13T05:58:38.308Z,33.33
2022-12-13T06:01:07.856Z,29.67
2022-12-13T06:03:34.829Z,28.30
2022-12-13T06:06:02.506Z,37.80
2022-12-13T06:08:30.245Z,29.60
2022-12-13T06:11:09.786Z,28.60
2022-12-13T06:16:21.808Z,22.65
2022-12-13T06:18:50.631Z,29.35
2022-12-13T06:21:17.562Z,27.80
2022-12-13T06:23:44.378Z,30.50
2022-12-13T06:26:10.934Z,26.63
2022-12-13T06:28:37.471Z,30.88
2022-12-13T06:31:05.002Z,25.02
2022-12-13T06:33:35.512Z,23.55
2022-12-13T06:36:02.400Z,22.67
2022-12-13T06:38:31.921Z,22.08
2022-12-13T06:41:14.183Z,20.25
2022-12-13T06:43:48.635Z,18.92
2022-12-13T06:46:15.956Z,19.67
2022-12-13T06:48:42.539Z,21.65
2022-12-13T06:51:09.790Z,19.42
2022-12-13T06:53:38.077Z,22.38
2022-12-13T06:56:09.619Z,24.23
2022-12-13T06:58:36.955Z,18.98
2022-12-13T07:01:15.164Z,21.10
2022-12-13T07:03:54.773Z,25.05
2022-12-13T07:06:23.832Z,23.52
2022-12-13T07:08:56.157Z,26.23
2022-12-13T07:11:25.870Z,41.53
2022-12-13T07:13:53.806Z,46.10
2022-12-13T07:16:22.696Z,50.00
2022-12-13T07:18:54.397Z,55.35
2022-12-13T07:21:29.137Z,48.63
2022-12-13T07:23:55.827Z,36.83
2022-12-13T07:26:22.885Z,31.60
2022-12-13T07:28:54.817Z,28.52
2022-12-13T07:31:22.838Z,36.38
2022-12-13T07:33:49.751Z,39.90
2022-12-13T07:36:21.971Z,40.05
2022-12-13T07:38:53.575Z,34.38
2022-12-13T07:41:23.395Z,33.28
2022-12-13T07:43:55.473Z,32.00
2022-12-13T07:46:32.825Z,35.05
2022-12-13T07:49:04.927Z,30.25
2022-12-13T07:51:35.567Z,29.50
2022-12-13T07:54:06.828Z,30.70
2022-12-13T07:56:34.927Z,29.95
2022-12-13T07:59:01.856Z,31.73
2022-12-13T08:01:34.699Z,30.20
2022-12-13T08:04:02.503Z,29.20
2022-12-13T08:06:30.107Z,28.08
2022-12-13T08:08:57.674Z,28.00
2022-12-13T08:11:24.267Z,23.83
2022-12-13T08:13:51.024Z,28.95
2022-12-13T08:16:27.322Z,24.83
2022-12-13T08:19:02.130Z,24.95
2022-12-13T08:24:31.422Z,24.13
2022-12-13T08:27:03.624Z,26.85
2022-12-13T08:29:33.175Z,25.45
2022-12-13T08:32:10.006Z,22.77
2022-12-13T08:34:36.830Z,22.10
2022-12-13T08:37:04.533Z,20.05
2022-12-13T08:39:37.421Z,25.58
2022-12-13T08:42:18.889Z,25.25
2022-12-13T08:44:51.141Z,23.27
2022-12-13T08:47:26.334Z,24.20
2022-12-13T08:49:55.316Z,27.25
2022-12-13T08:52:23.714Z,21.98
2022-12-13T08:54:51.058Z,23.73
2022-12-13T08:57:17.665Z,19.80
2022-12-13T08:59:44.829Z,23.58
2022-12-13T09:02:15.173Z,21.35
2022-12-13T09:04:42.279Z,21.93
2022-12-13T09:07:09.245Z,27.02
2022-12-13T09:09:36.964Z,21.83
2022-12-13T09:12:11.038Z,24.80
2022-12-13T09:14:50.816Z,26.92
2022-12-13T09:17:24.665Z,21.63
2022-12-13T09:19:58.447Z,21.15
2022-12-13T09:22:33.104Z,21.70
2022-12-13T09:25:02.942Z,24.13
2022-12-13T09:27:31.037Z,20.92
2022-12-13T09:30:08.581Z,19.42
2022-12-13T09:32:35.170Z,22.48
2022-12-13T09:35:01.933Z,21.27
2022-12-13T09:37:29.761Z,20.52
2022-12-13T09:39:56.392Z,26.42
2022-12-13T09:42:30.393Z,24.15
2022-12-13T09:45:06.344Z,21.75
2022-12-13T09:50:25.498Z,21.92
2022-12-13T09:52:53.287Z,21.92
2022-12-13T09:55:32.522Z,25.58
2022-12-13T09:58:05.780Z,22.70
2022-12-13T10:00:36.824Z,21.67
2022-12-13T10:03:03.758Z,21.30
2022-12-13T10:05:39.381Z,22.48
2022-12-13T10:08:13.969Z,21.75
2022-12-13T10:10:41.012Z,18.80
2022-12-13T10:13:19.277Z,22.27
2022-12-13T10:15:54.855Z,21.20
2022-12-13T10:18:40.910Z,19.70
2022-12-13T10:21:20.470Z,16.92
2022-12-13T10:26:37.348Z,18.10
2022-12-13T10:29:05.511Z,17.33
2022-12-13T10:31:47.537Z,16.08
2022-12-13T10:34:21.341Z,18.05
2022-12-13T10:36:48.113Z,17.55
2022-12-13T10:39:36.286Z,20.27
2022-12-13T10:42:05.800Z,15.27
2022-12-13T10:44:32.340Z,17.63
2022-12-13T10:47:17.020Z,20.02
2022-12-13T10:49:59.640Z,19.80
2022-12-13T10:52:30.856Z,20.13
2022-12-13T10:55:02.540Z,19.23
2022-12-13T10:57:29.403Z,17.98
2022-12-13T10:59:56.171Z,16.02
2022-12-13T11:02:38.610Z,16.15
2022-12-13T11:05:28.531Z,13.90
2022-12-13T11:08:16.286Z,20.00
2022-12-13T11:10:43.327Z,15.85
2022-12-13T11:13:25.443Z,18.48
2022-12-13T11:15:55.893Z,16.30
2022-12-13T11:18:25.882Z,17.02
2022-12-13T11:21:02.586Z,19.38
2022-12-13T11:23:38.058Z,16.27
2022-12-13T11:26:24.052Z,11.30
2022-12-13T11:29:08.021Z,18.50
2022-12-13T11:32:01.171Z,13.77
2022-12-13T11:34:46.098Z,14.48
2022-12-13T11:37:40.371Z,12.02
2022-12-13T11:40:45.992Z,7.10
2022-12-13T11:43:38.677Z,9.88
2022-12-13T11:46:15.213Z,8.35
2022-12-13T11:48:53.338Z,9.90
2022-12-13T11:51:31.161Z,7.85
2022-12-13T11:54:13.384Z,7.47
2022-12-13T11:56:52.568Z,8.73
2022-12-13T11:59:39.774Z,7.47
2022-12-13T12:02:29.608Z,8.00
2022-12-13T12:05:00.748Z,33.20
2022-12-13T12:10:22.185Z,10.27
2022-12-13T12:13:04.597Z,16.10
2022-12-13T12:15:49.171Z,9.57
2022-12-13T12:18:22.890Z,6.30
2022-12-13T12:20:52.715Z,7.07
2022-12-13T12:23:48.420Z,6.82
2022-12-13T12:26:19.343Z,10.70
2022-12-13T12:29:17.565Z,8.55
2022-12-13T12:32:09.028Z,7.53
2022-12-13T12:34:38.487Z,6.75
2022-12-13T12:37:08.084Z,7.32
2022-12-13T12:39:35.589Z,10.50
2022-12-13T12:42:28.756Z,7.82
2022-12-13T12:45:55.730Z,8.70
2022-12-13T12:51:36.591Z,8.40
2022-12-13T12:54:07.764Z,9.63
2022-12-13T12:56:54.550Z,10.32
2022-12-13T12:59:49.101Z,8.38
2022-12-13T13:02:35.822Z,8.07
2022-12-13T13:05:37.500Z,8.07
2022-12-13T13:08:10.020Z,5.78
2022-12-13T13:10:40.179Z,6.68
2022-12-13T13:13:33.088Z,6.80
2022-12-13T13:15:55.740Z,5.70
2022-12-13T13:18:51.992Z,6.15
2022-12-13T13:21:30.740Z,5.85
2022-12-13T13:24:09.446Z,6.70
2022-12-13T13:26:48.179Z,6.03
2022-12-13T13:29:27.020Z,8.93
2022-12-13T13:32:01.117Z,8.98
2022-12-13T13:34:36.678Z,6.68
2022-12-13T13:37:23.039Z,7.32
2022-12-13T13:40:12.507Z,5.00
2022-12-13T13:42:57.023Z,5.55
2022-12-13T13:45:27.461Z,5.75
2022-12-13T13:48:14.676Z,4.28
2022-12-13T13:51:03.549Z,15.30
2022-12-13T13:53:49.499Z,5.90
2022-12-13T13:56:50.024Z,52.78
2022-12-13T13:59:53.058Z,15.10
2022-12-13T14:02:41.315Z,89.93
2022-12-13T14:05:40.344Z,13.05
2022-12-13T14:08:34.707Z,8.00
2022-12-13T14:11:25.803Z,8.57
2022-12-13T14:14:39.461Z,7.13
2022-12-13T14:17:21.152Z,9.00
2022-12-13T14:20:25.051Z,9.70
2022-12-13T14:23:09.791Z,13.85
2022-12-13T14:25:52.795Z,14.07
2022-12-13T14:28:37.906Z,10.52
2022-12-13T14:31:04.622Z,13.40
2022-12-13T14:33:31.322Z,7.95
2022-12-13T14:36:00.170Z,8.18
2022-12-13T14:38:29.454Z,8.25
2022-12-13T14:41:00.072Z,10.02
2022-12-13T14:43:29.452Z,6.82
2022-12-13T14:46:02.721Z,10.18
2022-12-13T14:48:34.184Z,11.13
2022-12-13T14:53:42.761Z,9.60
2022-12-13T14:56:09.921Z,10.30
2022-12-13T14:58:38.093Z,8.32
2022-12-13T15:01:06.558Z,9.20
2022-12-13T15:03:35.102Z,7.75
2022-12-13T15:06:04.137Z,9.40
2022-12-13T15:08:34.049Z,7.90
2022-12-13T15:11:04.101Z,12.40
2022-12-13T15:13:41.787Z,10.07
2022-12-13T15:16:14.164Z,10.70
2022-12-13T15:18:50.256Z,7.85
2022-12-13T15:21:25.067Z,10.90
2022-12-13T15:24:03.764Z,9.90
2022-12-13T15:26:33.512Z,17.20
2022-12-13T15:29:10.042Z,24.70
2022-12-13T15:31:37.347Z,18.70
2022-12-13T15:34:31.542Z,13.02
2022-12-13T15:37:01.326Z,11.60
2022-12-13T15:39:29.017Z,15.52
2022-12-13T15:41:57.057Z,14.48
2022-12-13T15:44:28.013Z,13.20
2022-12-13T15:47:03.087Z,14.68
2022-12-13T15:49:39.998Z,13.75
2022-12-13T15:52:23.352Z,29.40
2022-12-13T15:55:19.687Z,24.30
2022-12-13T15:57:50.999Z,17.50
2022-12-13T16:00:17.562Z,22.52
2022-12-13T16:02:57.946Z,26.98
2022-12-13T16:05:38.769Z,19.23
2022-12-13T16:08:14.463Z,15.88
2022-12-13T16:10:47.997Z,13.07
2022-12-13T16:13:27.255Z,17.75
2022-12-13T16:16:08.800Z,17.30
2022-12-13T16:18:45.997Z,18.13
2022-12-13T16:21:14.313Z,18.38
2022-12-13T16:23:48.030Z,22.60
2022-12-13T16:26:21.907Z,28.52
2022-12-13T16:28:48.555Z,30.17
2022-12-13T16:31:24.247Z,23.73
2022-12-13T16:33:51.253Z,23.30
2022-12-13T16:36:20.574Z,24.75
2022-12-13T16:38:47.159Z,20.83
2022-12-13T16:41:14.798Z,21.80
2022-12-13T16:43:52.310Z,25.98
2022-12-13T16:47:12.088Z,27.20
2022-12-13T16:49:17.426Z,35.25
2022-12-13T16:51:48.221Z,35.40
2022-12-13T16:54:15.777Z,34.40
2022-12-13T16:56:42.902Z,35.00
2022-12-13T16:59:13.895Z,28.98
2022-12-13T17:01:43.964Z,27.17
2022-12-13T17:04:19.591Z,29.10
2022-12-13T17:06:49.543Z,31.65
2022-12-13T17:09:16.685Z,31.65
2022-12-13T17:11:43.458Z,29.08
2022-12-13T17:14:14.188Z,36.08
2022-12-13T17:16:44.016Z,29.63
2022-12-13T17:19:12.240Z,31.35
2022-12-13T17:21:41.688Z,30.70
2022-12-13T17:24:08.788Z,27.15
2022-12-13T17:26:38.124Z,27.65
2022-12-13T17:29:05.020Z,27.00
2022-12-13T17:31:35.674Z,26.88
2022-12-13T17:34:04.109Z,32.47
2022-12-13T17:36:31.610Z,22.38
2022-12-13T17:38:58.801Z,23.63
2022-12-13T17:41:25.398Z,27.60
2022-12-13T17:43:51.953Z,30.25
2022-12-13T17:46:19.367Z,24.33
2022-12-13T17:48:46.070Z,25.77
2022-12-13T17:51:14.159Z,24.10
2022-12-13T17:53:42.102Z,21.88
2022-12-13T17:56:13.330Z,21.50
2022-12-13T17:58:40.062Z,17.13
2022-12-13T18:01:21.228Z,20.38
2022-12-13T18:03:48.937Z,21.55
2022-12-13T18:06:15.810Z,22.75
2022-12-13T18:08:44.352Z,30.75
2022-12-13T18:13:59.178Z,36.53
2022-12-13T18:16:33.958Z,32.08
2022-12-13T18:19:07.709Z,30.50
2022-12-13T18:21:36.669Z,38.70
2022-12-13T18:24:03.687Z,45.72
2022-12-13T18:26:30.358Z,47.17
2022-12-13T18:28:57.040Z,42.05
2022-12-13T18:31:25.397Z,39.33
2022-12-13T18:33:53.320Z,35.63
2022-12-13T18:36:22.899Z,37.30
2022-12-13T18:38:49.534Z,32.45
2022-12-13T18:41:18.906Z,43.78
2022-12-13T18:43:46.194Z,37.33
2022-12-13T18:46:14.296Z,35.78
2022-12-13T18:48:41.195Z,40.50
2022-12-13T18:51:09.622Z,45.13
2022-12-13T18:53:37.382Z,52.78
2022-12-13T18:56:17.519Z,77.13
2022-12-13T18:58:45.486Z,90.90
2022-12-13T19:01:12.913Z,52.88
2022-12-13T19:03:42.478Z,34.13
2022-12-13T19:06:14.985Z,30.17
2022-12-13T19:08:41.562Z,28.92
2022-12-13T19:11:08.396Z,29.92
2022-12-13T19:13:34.962Z,27.15
2022-12-13T19:16:08.083Z,29.52
2022-12-13T19:18:35.753Z,23.60
2022-12-13T19:21:10.079Z,24.20
2022-12-13T19:23:36.666Z,23.23
2022-12-13T19:26:14.055Z,30.58
2022-12-13T19:28:43.357Z,34.55
2022-12-13T19:31:11.714Z,40.47
2022-12-13T19:33:39.356Z,43.00
2022-12-13T19:36:07.063Z,47.10
2022-12-13T19:38:33.944Z,44.15
2022-12-13T19:41:00.942Z,42.35
2022-12-13T19:43:28.205Z,45.88
2022-12-13T19:45:55.142Z,49.13
2022-12-13T19:48:21.691Z,46.90
2022-12-13T19:50:48.307Z,43.00
2022-12-13T19:53:14.857Z,36.10
2022-12-13T19:55:48.305Z,39.20
2022-12-13T19:58:15.169Z,36.60
2022-12-13T20:00:41.780Z,35.38
2022-12-13T20:03:08.417Z,31.05
2022-12-13T20:05:36.008Z,37.63
2022-12-13T20:08:02.881Z,33.20
2022-12-13T20:10:29.650Z,40.10
2022-12-13T20:12:56.213Z,30.70
2022-12-13T20:15:23.017Z,29.38
2022-12-13T20:17:51.599Z,26.83
2022-12-13T20:20:19.641Z,23.75
2022-12-13T20:22:46.728Z,21.58
2022-12-13T20:25:15.209Z,27.95
2022-12-13T20:27:41.807Z,32.85
2022-12-13T20:30:09.064Z,28.50
2022-12-13T20:32:35.773Z,26.58
2022-12-13T20:35:02.691Z,25.27
2022-12-13T20:37:30.007Z,24.80
2022-12-13T20:39:56.696Z,32.67
2022-12-13T20:42:24.354Z,33.80
2022-12-13T20:44:51.002Z,29.85
2022-12-13T20:47:17.530Z,30.63
2022-12-13T20:49:44.360Z,30.73
2022-12-13T20:54:41.873Z,25.65
2022-12-13T20:57:08.645Z,37.60
2022-12-13T20:59:36.484Z,33.28
2022-12-13T21:02:03.103Z,24.88
2022-12-13T21:04:30.027Z,24.13
2022-12-13T21:06:56.654Z,27.50
2022-12-13T21:09:23.244Z,24.83
2022-12-13T21:11:50.105Z,25.15
2022-12-13T21:14:26.722Z,27.33
2022-12-13T21:16:54.585Z,28.83
2022-12-13T21:19:33.059Z,29.38
2022-12-13T21:22:01.301Z,27.45
2022-12-13T21:24:29.432Z,26.70
2022-12-13T21:26:56.596Z,30.77
2022-12-13T21:29:23.621Z,33.78
2022-12-13T21:31:50.582Z,30.25
2022-12-13T21:34:18.448Z,27.55
2022-12-13T21:36:48.653Z,27.35
2022-12-13T21:39:26.782Z,28.45
2022-12-13T21:41:54.532Z,24.52
2022-12-13T21:44:21.991Z,27.20
2022-12-13T21:49:35.887Z,28.20
2022-12-13T21:52:02.788Z,20.95
2022-12-13T21:54:30.660Z,22.15
2022-12-13T21:57:16.329Z,23.92
2022-12-13T21:59:43.196Z,21.80
2022-12-13T22:02:19.462Z,21.67
2022-12-13T22:04:57.727Z,21.55
2022-12-13T22:07:24.372Z,19.38
2022-12-13T22:09:52.371Z,19.35
2022-12-13T22:12:26.331Z,17.88
2022-12-13T22:14:53.584Z,19.02
2022-12-13T22:17:24.961Z,18.55
2022-12-13T22:19:54.421Z,16.50
2022-12-13T22:22:22.686Z,16.23
2022-12-13T22:24:53.555Z,16.98
2022-12-13T22:27:24.356Z,16.83
2022-12-13T22:29:54.051Z,19.77
2022-12-13T22:32:21.031Z,22.08
2022-12-13T22:34:50.214Z,21.00
2022-12-13T22:37:19.912Z,21.45
2022-12-13T22:39:46.597Z,23.20
2022-12-13T22:42:13.184Z,17.80
2022-12-13T22:44:39.822Z,17.10
2022-12-13T22:47:06.667Z,21.65
2022-12-13T22:49:33.266Z,16.70
2022-12-13T22:52:01.016Z,18.17
2022-12-13T22:54:31.031Z,18.00
2022-12-13T22:57:00.312Z,21.60
2022-12-13T22:59:26.900Z,16.27
2022-12-13T23:02:02.754Z,15.23
2022-12-13T23:04:32.289Z,17.90
2022-12-13T23:07:01.648Z,18.98
2022-12-13T23:09:28.333Z,16.80
2022-12-13T23:12:13.943Z,18.85
2022-12-13T23:14:40.594Z,14.35
2022-12-13T23:17:07.347Z,15.25
2022-12-13T23:19:49.120Z,19.40
2022-12-13T23:22:18.284Z,18.92
2022-12-13T23:24:44.838Z,16.90
2022-12-13T23:27:11.367Z,17.10
2022-12-13T23:29:38.099Z,15.32
2022-12-13T23:32:04.861Z,16.70
2022-12-13T23:34:31.545Z,17.95
2022-12-13T23:36:58.532Z,16.73
2022-12-13T23:39:25.120Z,16.63
2022-12-13T23:41:52.027Z,16.65
2022-12-13T23:44:18.943Z,14.43
2022-12-13T23:46:48.159Z,11.30
2022-12-13T23:49:16.031Z,14.25
2022-12-13T23:51:42.657Z,13.48
2022-12-13T23:54:14.426Z,16.13
2022-12-13T23:56:41.465Z,14.48
2022-12-13T23:59:08.597Z,15.18
